Amarante, Brazil
Current Conditions -  °F | °C
As of 7:00 PM on Friday 28 Nov 2014 (Local Time) from SBTE Reporting Station
Few Clouds Few Clouds  
Wind Chill: 91°   Ceiling: Unl
Heat Index: 94°   Visibility: 6mi
Dew Point: 66°   Wind: 2mph
Humidity: 43%   Direction: 270°W
Pressure: 29.77"   Gusts: NA
Location:  6.24°S, 42.85°W
Report Text: SBTE 282200Z 27002KT 9999 FEW040 33/19 Q1008
Loading
Personal Weather Stations






























Interactive Weather Map New forecast layout! Learn more

10-Day Weather Forecast

Advertisements
Track Severe Weather on mobile